Friday, February 12, 2016, 10:06 AM CST
Back to Local

KHDC, Hammond, Hammond Municipal Airport

Location: Hammond, LA, United States Lat: 30.521
Local Time: 10:06 AM CST (16:06 GMT) Lon: -90.418
Time Zone: US/Central Elev: 42 ft

Show me the last for .
Show Coded

Time T Td Feel RH Dir Speed Gust Alt SLP Vis Weather Sky Remarks
2016-02-12 09:35 63 57 - 82 300° 14 - 30.27 - 10 BKN009 OVC013 None
2016-02-12 09:15 63 57 - 82 270° 9 - 30.26 - 10 OVC007 None
2016-02-12 08:55 61 57 - 87 270° 12 - 30.26 - 7 OVC005 None
2016-02-12 08:35 59 57 - 93 270° 7 - 30.26 - 7 OVC005 None
2016-02-12 08:15 59 55 - 87 310° 7 - 30.26 - 5 BR OVC005 None
2016-02-12 07:55 59 55 - 87 280° 6 - 30.25 - 5 BR BKN005 BKN008 OVC029 None
2016-02-12 07:35 59 55 - 87 240° 6 - 30.24 - 5 BR SCT003 BKN007 BKN013 None
2016-02-12 07:15 59 55 - 87 260° 5 - 30.24 - 5 BR BKN003 OVC008 None
2016-02-12 06:55 57 55 - 93 250° 5 - 30.23 - 5 BR OVC005 None
2016-02-12 06:35 59 55 - 87 260° 5 - 30.22 - 7 OVC005 None
2016-02-12 06:15 59 55 - 87 270° 6 - 30.22 - 7 OVC003 None
2016-02-12 05:55 57 55 - 93 280° 7 - 30.21 - 7 OVC003 None
2016-02-12 05:35 57 55 - 93 270° 7 - 30.21 - 4 BR OVC003 None
2016-02-12 05:15 57 54 - 87 270° 5 - 30.20 - 3 BR OVC003 None
2016-02-12 04:55 55 54 - 93 260° 3 - 30.20 - 0 BR OVC003 None
2016-02-12 04:35 55 54 - 93 270° 3 - 30.19 - 0 BR OVC003 None
2016-02-12 04:15 55 54 - 93 - Calm - 30.18 - 5 BR OVC003 None
2016-02-12 03:55 55 54 - 93 - Calm - 30.18 - 7 SCT003 None
2016-02-12 03:35 55 54 - 93 250° 3 - 30.17 - 10 CLR None
2016-02-12 03:15 57 54 - 87 240° 5 - 30.17 - 10 CLR None
2016-02-12 02:55 57 54 - 87 250° 5 - 30.17 - 10 CLR None
2016-02-12 02:35 59 55 - 87 260° 5 - 30.17 - 10 CLR None
2016-02-12 02:15 59 55 - 87 240° 7 - 30.17 - 10 CLR None
2016-02-12 01:55 59 55 - 87 240° 7 - 30.17 - 10 CLR None
2016-02-12 01:35 59 55 - 87 230° 5 - 30.17 - 10 CLR None
2016-02-12 01:15 59 55 - 87 230° 7 - 30.17 - 10 CLR None
2016-02-12 00:55 59 55 - 87 250° 5 - 30.17 - 10 CLR None
2016-02-12 00:35 59 55 - 87 240° 7 - 30.17 - 10 CLR None
2016-02-12 00:15 59 55 - 87 230° 7 - 30.17 - 10 CLR None
2016-02-11 23:55 59 55 - 87 230° 7 - 30.18 - 10 CLR None
2016-02-11 23:35 59 55 - 87 240° 6 - 30.19 - 10 CLR None
2016-02-11 23:15 59 55 - 87 230° 8 - 30.19 - 10 CLR None
2016-02-11 22:55 61 54 - 77 240° 7 - 30.19 - 10 CLR None
2016-02-11 22:35 61 54 - 77 220° 8 - 30.18 - 10 CLR None
2016-02-11 22:15 61 54 - 77 220° 8 - 30.19 - 10 CLR None
2016-02-11 21:55 61 54 - 77 240° 8 - 30.19 - 10 CLR None
2016-02-11 21:35 61 54 - 77 230° 6 - 30.19 - 10 CLR None
2016-02-11 21:15 63 54 - 72 230° 5 - 30.19 - 10 CLR None
2016-02-11 20:55 63 52 - 67 230° 7 - 30.18 - 10 CLR None
2016-02-11 20:35 63 52 - 67 230° 8 - 30.18 - 10 CLR None
2016-02-11 20:15 63 52 - 67 230° 7 - 30.18 - 10 CLR None
2016-02-11 19:55 63 52 - 67 230° 8 - 30.17 - 10 CLR None
2016-02-11 19:35 64 52 - 63 240° 7 - 30.17 - 10 CLR None
2016-02-11 19:15 66 52 - 59 240° 9 - 30.17 - 10 CLR None
2016-02-11 18:55 68 50 - 52 230° 8 - 30.16 - 10 CLR None
2016-02-11 18:35 68 50 - 52 230° 7 - 30.15 - 10 CLR None
2016-02-11 18:15 70 50 - 49 230° 8 - 30.15 - 10 CLR None
2016-02-11 17:55 70 50 - 49 230° 8 - 30.14 - 10 CLR None
2016-02-11 17:35 72 46 75 40 240° 9 - 30.13 - 10 CLR None
2016-02-11 17:15 73 46 - 38 240° 8 - 30.13 - 10 CLR None
2016-02-11 16:55 73 46 - 38 250° 9 - 30.12 - 10 CLR None
2016-02-11 16:35 75 45 - 33 250° 12 17 30.12 - 10 CLR None
2016-02-11 16:15 77 45 - 31 240° 12 17 30.11 - 10 CLR None
2016-02-11 15:55 77 45 - 31 250° 13 21 30.11 - 10 CLR None
2016-02-11 15:35 77 45 - 31 230° 15 18 30.11 - 10 CLR None
2016-02-11 15:15 79 45 - 29 240° 10 - 30.11 - 10 CLR None
2016-02-11 14:55 77 45 - 31 240° 9 18 30.10 - 10 CLR None
2016-02-11 14:35 77 45 - 31 230° 14 22 30.11 - 10 CLR None
2016-02-11 14:15 77 46 - 33 280° 10 - 30.11 - 10 CLR None
2016-02-11 13:55 77 46 - 33 230° 12 20 30.12 - 10 CLR None
2016-02-11 13:35 77 46 - 33 230° 16 - 30.13 - 10 CLR None
2016-02-11 13:15 77 45 - 31 250° 16 21 30.13 - 10 CLR None
2016-02-11 12:55 75 45 - 33 250° 15 24 30.14 - 10 CLR None
2016-02-11 12:35 75 46 - 36 250° 12 17 30.15 - 10 CLR None
2016-02-11 12:15 73 46 - 38 250° 14 18 30.17 - 10 CLR None
2016-02-11 11:55 73 48 76 40 280° 14 21 30.18 - 10 CLR None
2016-02-11 11:35 72 50 76 46 260° 15 24 30.19 - 10 CLR None
2016-02-11 11:15 72 50 76 46 250° 13 22 30.20 - 10 CLR None
2016-02-11 10:55 70 50 - 49 260° 13 24 30.20 - 10 CLR None
2016-02-11 10:35 70 52 - 52 250° 16 22 30.21 - 10 CLR None
2016-02-11 10:15 68 52 - 56 250° 16 23 30.21 - 10 CLR None

Support USWX by starting your Amazon purchase here.